Time;durP1;ratioP1;P1;durP2;ratioP2;P2;SDS_P1;SDS_P2;PMS_P1;PMS_P2;Temp;Humidity;BMP_temperature;BMP_pressure;BME280_temperature;BME280_humidity;BME280_pressure;Samples;Min_cycle;Max_cycle;Signal;HPM_P1;HPM_P2
2021/03/17 00:00:18;;;;;;;33.30;18.50;;;;;;;2.27;75.91;100531.16;1794587;78;25744;-78
2021/03/17 00:03:07;;;;;;;37.03;18.92;;;;;;;2.28;75.79;100532.00;1785464;78;26413;-78
2021/03/17 00:05:52;;;;;;;36.65;19.25;;;;;;;2.30;75.80;100527.41;1778627;78;25845;-77
2021/03/17 00:08:38;;;;;;;34.48;18.40;;;;;;;2.31;75.70;100537.84;1769157;80;27100;-78
2021/03/17 00:11:24;;;;;;;33.85;18.32;;;;;;;2.30;75.53;100544.11;1785479;80;26377;-77
2021/03/17 00:14:10;;;;;;;32.58;19.20;;;;;;;2.29;75.65;100533.17;1753579;78;25744;-77
2021/03/17 00:16:56;;;;;;;35.58;19.37;;;;;;;2.29;75.67;100536.30;1749947;80;26123;-77
2021/03/17 00:19:42;;;;;;;31.65;17.67;;;;;;;2.28;75.62;100534.16;1793348;78;25886;-78
2021/03/17 00:22:28;;;;;;;30.72;19.70;;;;;;;2.23;75.59;100535.05;1785850;78;27534;-78
2021/03/17 00:25:14;;;;;;;36.50;19.35;;;;;;;2.20;75.59;100539.27;1751404;80;25836;-77
2021/03/17 00:28:04;;;;;;;38.28;19.92;;;;;;;2.16;75.61;100529.94;1775306;78;25743;-77
2021/03/17 00:30:48;;;;;;;33.58;18.82;;;;;;;2.17;75.68;100534.74;1789292;78;25841;-77
2021/03/17 00:33:33;;;;;;;36.15;18.57;;;;;;;2.15;75.66;100533.56;1790227;78;25765;-78
2021/03/17 00:36:19;;;;;;;37.28;20.10;;;;;;;2.15;75.64;100531.41;1749657;78;26841;-77
2021/03/17 00:39:05;;;;;;;39.42;20.05;;;;;;;2.10;75.67;100534.45;1767402;80;26352;-77
2021/03/17 00:41:51;;;;;;;42.05;19.62;;;;;;;2.07;75.68;100532.09;1783376;79;26518;-78
2021/03/17 00:44:37;;;;;;;32.17;18.32;;;;;;;2.07;75.71;100533.89;1785978;80;25737;-77
2021/03/17 00:47:23;;;;;;;36.58;20.43;;;;;;;2.03;75.63;100533.30;1761004;78;26078;-77
2021/03/17 00:49:50;;;;;;;34.48;19.10;;;;;;;1.99;75.54;100531.90;1750685;80;27801;-76
2021/03/17 00:52:17;;;;;;;40.05;19.67;;;;;;;1.98;75.53;100529.40;1768642;80;26076;-77
2021/03/17 00:55:06;;;;;;;37.48;19.67;;;;;;;1.97;75.64;100532.99;1785747;80;25813;-78
2021/03/17 00:57:35;;;;;;;38.20;19.45;;;;;;;1.97;75.56;100535.64;1761635;78;25786;-76
2021/03/17 01:00:06;;;;;;;37.42;20.50;;;;;;;1.95;75.66;100530.50;1756094;78;25707;-77
2021/03/17 01:02:33;;;;;;;;;;;;;;;1.96;75.62;100532.66;1791011;79;27325;-77
2021/03/17 01:05:01;;;;;;;32.30;18.62;;;;;;;1.97;75.87;100534.31;1806082;78;26400;-78
2021/03/17 01:07:28;;;;;;;37.38;18.85;;;;;;;1.97;75.77;100534.31;1750059;80;25880;-78
2021/03/17 01:09:55;;;;;;;35.20;19.62;;;;;;;1.93;75.57;100539.04;1769644;78;25862;-78
2021/03/17 01:12:22;;;;;;;35.05;19.42;;;;;;;1.90;75.49;100535.36;1762972;80;25794;-77
2021/03/17 01:14:50;;;;;;;35.35;19.20;;;;;;;1.88;75.49;100536.46;1755647;78;29043;-78
2021/03/17 01:17:17;;;;;;;34.63;19.77;;;;;;;1.88;75.48;100531.18;1796953;78;25885;-77
2021/03/17 01:19:45;;;;;;;37.28;18.55;;;;;;;1.88;75.39;100535.95;1769074;80;25776;-76
2021/03/17 01:22:12;;;;;;;32.30;18.45;;;;;;;1.88;75.30;100535.95;1758596;79;26452;-78
2021/03/17 01:24:39;;;;;;;35.52;19.15;;;;;;;1.85;75.43;100531.43;1769215;80;25795;-77
2021/03/17 01:27:07;;;;;;;31.52;18.98;;;;;;;1.81;75.25;100529.55;1774269;78;28481;-78
2021/03/17 01:29:35;;;;;;;29.80;17.23;;;;;;;1.79;75.28;100529.33;1766971;80;25790;-77
2021/03/17 01:32:02;;;;;;;33.95;18.77;;;;;;;1.78;75.22;100532.92;1765137;79;25763;-77
2021/03/17 01:34:30;;;;;;;32.50;18.92;;;;;;;1.77;75.41;100531.27;1751455;80;26425;-78
2021/03/17 01:36:57;;;;;;;33.25;18.60;;;;;;;1.77;75.35;100536.55;1771423;80;25693;-77
2021/03/17 01:39:24;;;;;;;38.38;19.23;;;;;;;1.77;75.47;100534.75;1790870;78;28020;-78
2021/03/17 01:41:53;;;;;;;34.48;18.10;;;;;;;1.76;75.56;100532.22;1763666;80;26271;-77
2021/03/17 01:44:21;;;;;;;37.35;18.92;;;;;;;1.74;75.69;100532.36;1763543;78;25687;-78
2021/03/17 01:46:48;;;;;;;33.38;17.87;;;;;;;1.75;75.76;100530.09;1763888;80;25858;-78
2021/03/17 01:49:15;;;;;;;35.68;19.00;;;;;;;1.76;75.58;100529.58;1788068;78;25826;-76
2021/03/17 01:51:42;;;;;;;31.68;17.23;;;;;;;1.71;75.45;100537.89;1740794;80;28394;-78
2021/03/17 01:54:12;;;;;;;29.23;17.00;;;;;;;1.68;75.52;100539.49;1757391;78;25728;-78
2021/03/17 01:56:39;;;;;;;29.18;16.97;;;;;;;1.65;75.53;100538.93;1768060;80;25775;-76
2021/03/17 01:59:06;;;;;;;33.65;18.00;;;;;;;1.62;75.47;100536.06;1768386;80;25995;-77
2021/03/17 02:01:35;;;;;;;35.17;17.50;;;;;;;1.59;75.43;100532.35;1765757;79;26326;-78
2021/03/17 02:04:04;;;;;;;30.75;18.30;;;;;;;1.58;75.47;100539.43;1768124;80;27540;-77
2021/03/17 02:06:31;;;;;;;33.02;17.92;;;;;;;1.58;75.56;100540.41;1764128;80;25811;-78
2021/03/17 02:08:58;;;;;;;31.90;16.55;;;;;;;1.58;75.68;100538.62;1766845;80;25855;-77
2021/03/17 02:11:26;;;;;;;30.45;17.75;;;;;;;1.58;75.72;100541.73;1739394;80;25807;-76
2021/03/17 02:14:34;;;;;;;33.80;17.45;;;;;;;1.58;75.87;100539.94;1763902;78;25831;-77
2021/03/17 02:17:16;;;;;;;35.13;17.57;;;;;;;1.56;75.74;100538.72;1767007;80;27614;-79
2021/03/17 02:20:03;;;;;;;32.65;16.15;;;;;;;1.49;75.51;100535.44;1794283;78;25873;-77
2021/03/17 02:22:53;;;;;;;32.90;16.35;;;;;;;1.43;75.73;100543.88;1773804;80;26211;-77
2021/03/17 02:25:49;;;;;;;33.08;16.73;;;;;;;1.32;75.79;100547.42;1785861;80;25813;-78
2021/03/17 02:28:40;;;;;;;32.90;17.90;;;;;;;1.28;75.78;100551.77;1784343;78;25339;-78
2021/03/17 02:31:38;;;;;;;33.55;17.48;;;;;;;1.20;75.88;100554.19;1790483;78;27624;-77
2021/03/17 02:34:09;;;;;;;26.02;15.68;;;;;;;1.18;76.02;100551.69;1791956;78;26433;-77
2021/03/17 02:36:59;;;;;;;34.58;17.67;;;;;;;1.16;76.07;100558.89;1776873;80;25782;-78
2021/03/17 02:39:48;;;;;;;33.30;16.80;;;;;;;1.15;76.13;100555.07;1798731;78;25817;-77
2021/03/17 02:42:32;;;;;;;32.13;18.42;;;;;;;1.11;76.09;100557.11;1790285;78;26449;-78
2021/03/17 02:45:13;;;;;;;29.48;16.07;;;;;;;1.08;76.20;100557.38;1711369;81;27632;-77
2021/03/17 02:47:50;;;;;;;;;;;;;;;1.04;76.24;100557.76;1743779;81;25802;-77
2021/03/17 02:50:19;;;;;;;31.82;16.50;;;;;;;0.96;76.31;100550.97;1735872;81;25761;-78
2021/03/17 02:52:50;;;;;;;30.75;16.48;;;;;;;0.91;76.49;100558.41;1720884;81;25990;-77
2021/03/17 02:55:20;;;;;;;28.35;15.38;;;;;;;0.88;76.55;100557.36;1720373;82;25795;-79
2021/03/17 02:57:49;;;;;;;31.40;16.12;;;;;;;0.81;76.64;100554.39;1742459;81;28515;-77
2021/03/17 03:00:18;;;;;;;30.10;14.15;;;;;;;0.73;76.95;100556.80;1701283;82;25992;-77
2021/03/17 03:02:49;;;;;;;31.45;17.57;;;;;;;0.67;77.25;100554.66;1719555;82;25775;-77
2021/03/17 03:05:17;;;;;;;25.68;14.75;;;;;;;0.57;77.27;100551.11;1756622;80;25759;-78
2021/03/17 03:07:50;;;;;;;35.03;17.27;;;;;;;0.54;77.50;100554.83;1733079;81;25781;-77
2021/03/17 03:10:20;;;;;;;33.13;17.12;;;;;;;0.51;77.40;100558.20;1692068;82;28427;-78
2021/03/17 03:12:49;;;;;;;28.23;15.17;;;;;;;0.41;77.59;100565.99;1688557;81;26301;-77
2021/03/17 03:15:20;;;;;;;26.05;14.30;;;;;;;0.41;77.59;100565.99;1699785;83;25382;-76
2021/03/17 03:17:49;;;;;;;28.67;14.85;;;;;;;0.35;77.96;100566.96;1730585;81;25804;-77
2021/03/17 03:20:20;;;;;;;29.95;16.05;;;;;;;0.33;78.13;100567.09;1710358;81;25820;-78
2021/03/17 03:22:48;;;;;;;33.38;15.32;;;;;;;0.34;78.20;100565.30;1696015;81;27615;-76
2021/03/17 03:25:16;;;;;;;30.35;15.43;;;;;;;0.33;78.31;100568.88;1700467;83;25853;-77
2021/03/17 03:27:45;;;;;;;26.50;14.25;;;;;;;0.32;78.27;100569.86;1707753;81;26389;-77
2021/03/17 03:30:23;;;;;;;31.80;16.32;;;;;;;0.30;78.33;100573.09;1684758;81;25906;-77
2021/03/17 03:32:53;;;;;;;28.55;14.50;;;;;;;0.29;78.44;100584.11;1725569;81;25803;-77
2021/03/17 03:35:23;;;;;;;24.90;14.25;;;;;;;0.25;78.48;100581.84;1742257;81;27541;-78
2021/03/17 03:37:51;;;;;;;26.52;13.70;;;;;;;0.21;78.44;100588.30;1738164;82;25695;-77
2021/03/17 03:40:21;;;;;;;24.50;13.00;;;;;;;0.15;78.98;100593.56;1708493;81;25867;-78
2021/03/17 03:42:50;;;;;;;29.72;15.13;;;;;;;0.08;79.53;100591.55;1719638;82;25780;-77
2021/03/17 03:45:19;;;;;;;23.70;12.65;;;;;;;0.03;80.57;100591.90;1713230;81;25795;-77
2021/03/17 03:47:47;;;;;;;26.23;13.32;;;;;;;0.00;80.96;100591.66;1733704;82;27547;-77
2021/03/17 03:50:19;;;;;;;25.62;13.35;;;;;;;0.00;81.52;100591.66;1687342;83;25745;-78
2021/03/17 03:53:11;;;;;;;22.27;12.25;;;;;;;0.02;82.42;100595.98;1734221;82;25783;-77
2021/03/17 03:56:04;;;;;;;27.02;13.43;;;;;;;0.02;83.55;100595.51;1733406;82;26492;-77
2021/03/17 03:58:56;;;;;;;21.97;12.25;;;;;;;0.04;83.28;100601.48;1735025;82;25840;-78
2021/03/17 04:01:46;;;;;;;22.85;11.12;;;;;;;0.08;84.09;100604.71;1720957;82;27661;-78
2021/03/17 04:04:17;;;;;;;23.10;13.70;;;;;;;0.10;84.83;100608.91;1717276;81;25798;-78
2021/03/17 04:06:50;;;;;;;24.63;12.43;;;;;;;0.12;84.91;100612.25;1713331;82;25721;-77
2021/03/17 04:09:32;;;;;;;24.70;11.48;;;;;;;0.12;85.00;100618.00;1739093;81;25780;-77
2021/03/17 04:12:03;;;;;;;25.05;12.40;;;;;;;0.12;85.63;100613.57;1698359;81;25757;-78
2021/03/17 04:14:33;;;;;;;17.02;9.08;;;;;;;0.13;85.11;100613.91;1710118;81;28443;-77
2021/03/17 04:17:20;;;;;;;22.22;12.33;;;;;;;0.15;85.20;100615.13;1708303;81;25947;-76
2021/03/17 04:19:52;;;;;;;26.30;14.20;;;;;;;0.17;85.14;100614.53;1700595;82;25880;-77
2021/03/17 04:22:21;;;;;;;23.95;12.73;;;;;;;0.18;84.88;100620.14;1669053;81;25784;-78
2021/03/17 04:24:50;;;;;;;24.30;11.73;;;;;;;0.21;84.72;100616.81;1701608;83;25930;-78
2021/03/17 04:27:20;;;;;;;22.90;12.98;;;;;;;0.22;84.63;100614.52;1716395;81;27359;-77
2021/03/17 04:29:51;;;;;;;20.92;11.05;;;;;;;0.23;84.47;100610.09;1737351;81;25806;-78
2021/03/17 04:32:20;;;;;;;18.80;10.65;;;;;;;0.20;85.41;100609.85;1734574;81;25708;-78
2021/03/17 04:34:50;;;;;;;20.62;10.75;;;;;;;0.16;85.41;100618.11;1690070;82;26438;-77
2021/03/17 04:37:18;;;;;;;22.02;11.73;;;;;;;0.16;84.81;100615.48;1709746;82;25759;-78
2021/03/17 04:39:47;;;;;;;23.25;11.08;;;;;;;0.16;85.01;100622.91;1736538;81;27546;-77
2021/03/17 04:42:17;;;;;;;20.30;10.75;;;;;;;0.16;85.29;100623.37;1698043;81;25774;-78
2021/03/17 04:44:46;;;;;;;22.57;12.90;;;;;;;0.17;85.15;100615.84;1680141;82;26367;-76
2021/03/17 04:47:14;;;;;;;21.00;10.75;;;;;;;0.18;85.14;100617.51;1689690;83;25891;-78
2021/03/17 04:49:44;;;;;;;20.20;10.93;;;;;;;0.18;85.12;100618.35;1736825;80;25737;-78
2021/03/17 04:52:17;;;;;;;22.77;11.03;;;;;;;0.20;85.32;100623.49;1699516;82;27531;-79
2021/03/17 04:54:45;;;;;;;20.40;10.80;;;;;;;0.20;85.57;100623.49;1716189;83;25827;-76
2021/03/17 04:57:21;;;;;;;21.73;11.70;;;;;;;0.20;85.39;100619.54;1735046;81;25741;-78
2021/03/17 04:59:50;;;;;;;17.67;9.78;;;;;;;0.20;85.59;100629.61;1710377;82;25827;-78
2021/03/17 05:02:22;;;;;;;23.77;12.82;;;;;;;0.19;85.66;100622.68;1681013;83;26097;-77
2021/03/17 05:04:52;;;;;;;18.57;10.98;;;;;;;0.20;85.63;100621.70;1700761;82;28313;-77
2021/03/17 05:07:21;;;;;;;24.77;12.82;;;;;;;0.22;85.58;100622.42;1734817;81;25927;-78
2021/03/17 05:09:49;;;;;;;20.23;9.68;;;;;;;0.23;85.32;100622.80;1677836;82;26485;-77
2021/03/17 05:12:17;;;;;;;23.52;12.47;;;;;;;0.25;85.74;100623.51;1657279;83;25854;-78
2021/03/17 05:14:46;;;;;;;20.55;11.18;;;;;;;0.26;85.49;100635.70;1697531;82;25790;-78
2021/03/17 05:17:16;;;;;;;24.35;12.55;;;;;;;0.28;85.60;100632.97;1739386;81;28165;-78
2021/03/17 05:19:44;;;;;;;23.67;12.75;;;;;;;0.30;85.51;100647.67;1675644;82;26098;-77
2021/03/17 05:22:13;;;;;;;23.95;10.75;;;;;;;0.32;85.67;100639.67;1682301;83;25912;-77
2021/03/17 05:24:40;;;;;;;23.22;12.88;;;;;;;0.34;85.74;100638.56;1699770;82;25790;-77
2021/03/17 05:27:12;;;;;;;20.43;10.28;;;;;;;0.37;85.32;100633.54;1710670;83;25777;-78
2021/03/17 05:29:41;;;;;;;21.97;12.63;;;;;;;0.39;86.28;100643.48;1711179;81;27611;-77
2021/03/17 05:32:11;;;;;;;22.58;10.58;;;;;;;0.40;85.48;100642.53;1698229;82;25832;-77
2021/03/17 05:35:01;;;;;;;23.18;14.20;;;;;;;0.43;85.28;100646.22;1690082;83;25636;-76
2021/03/17 05:37:28;;;;;;;23.62;12.93;;;;;;;0.45;85.24;100639.88;1711437;83;25800;-77
2021/03/17 05:39:56;;;;;;;24.40;13.20;;;;;;;0.50;85.27;100640.84;1664537;83;26119;-76
2021/03/17 05:42:25;;;;;;;26.57;13.65;;;;;;;0.53;85.14;100643.24;1694488;83;28520;-77
2021/03/17 05:44:54;;;;;;;23.50;14.23;;;;;;;0.55;85.17;100643.95;1722987;82;26461;-77
2021/03/17 05:47:23;;;;;;;23.52;13.43;;;;;;;0.58;85.07;100641.06;1745636;81;25811;-76
2021/03/17 05:49:51;;;;;;;24.43;12.55;;;;;;;0.62;84.90;100645.97;1705301;80;25810;-77
2021/03/17 05:52:19;;;;;;;21.60;12.90;;;;;;;0.65;84.99;100651.01;1756442;80;25780;-76
2021/03/17 05:54:47;;;;;;;26.42;12.98;;;;;;;0.67;84.95;100652.20;1748794;80;27176;-78
2021/03/17 05:57:14;;;;;;;23.42;13.35;;;;;;;0.68;85.01;100653.88;1743261;80;26246;-78
2021/03/17 05:59:42;;;;;;;26.25;13.32;;;;;;;0.71;84.90;100652.30;1700008;80;25408;-78
2021/03/17 06:02:09;;;;;;;28.25;15.05;;;;;;;0.73;85.00;100655.66;1727933;80;25822;-78
2021/03/17 06:04:42;;;;;;;22.30;11.05;;;;;;;0.76;84.87;100661.53;1753191;80;25946;-78
2021/03/17 06:07:17;;;;;;;23.95;12.20;;;;;;;0.79;85.03;100659.14;1771436;80;27542;-78
2021/03/17 06:09:45;;;;;;;27.15;14.13;;;;;;;0.82;84.93;100664.63;1754633;80;25717;-77
2021/03/17 06:12:15;;;;;;;28.80;13.78;;;;;;;0.86;84.83;100662.09;1755123;80;25882;-80
2021/03/17 06:14:44;;;;;;;26.60;13.85;;;;;;;0.87;84.86;100664.63;1729301;81;25849;-80
2021/03/17 06:17:17;;;;;;;24.27;12.82;;;;;;;0.94;84.83;100664.97;1728945;82;25787;-79
2021/03/17 06:19:49;;;;;;;27.87;13.15;;;;;;;0.97;84.73;100668.19;1772587;80;27521;-80
2021/03/17 06:22:17;;;;;;;19.85;11.35;;;;;;;1.03;84.82;100670.33;1716859;81;25789;-81
2021/03/17 06:24:45;;;;;;;23.25;12.10;;;;;;;1.05;84.82;100674.99;1723178;82;25777;-80
2021/03/17 06:27:14;;;;;;;21.55;11.33;;;;;;;1.09;84.81;100676.41;1714030;83;25786;-80
2021/03/17 06:29:41;;;;;;;25.43;12.35;;;;;;;1.08;84.73;100677.39;1709966;82;25807;-80
2021/03/17 06:32:12;;;;;;;26.17;12.88;;;;;;;1.09;84.83;100680.38;1687178;82;28605;-80
2021/03/17 06:34:50;;;;;;;21.50;11.65;;;;;;;1.11;84.97;100682.41;1755486;80;25823;-80
2021/03/17 06:37:18;;;;;;;21.77;12.10;;;;;;;1.11;85.05;100682.41;1768939;79;25681;-78
2021/03/17 06:39:45;;;;;;;19.52;9.90;;;;;;;1.13;85.15;100691.06;1711936;79;26452;-75
2021/03/17 06:42:12;;;;;;;23.98;11.83;;;;;;;1.12;85.75;100690.69;1717386;80;25739;-77
2021/03/17 06:44:40;;;;;;;23.92;12.53;;;;;;;1.12;85.70;100687.20;1704381;82;28368;-76
2021/03/17 06:47:21;;;;;;;19.87;9.80;;;;;;;1.12;85.81;100690.69;1726873;82;25746;-77
2021/03/17 06:49:54;;;;;;;23.52;11.68;;;;;;;1.13;85.93;100690.22;1685995;81;25820;-78
2021/03/17 06:52:45;;;;;;;20.85;11.57;;;;;;;1.16;85.94;100701.34;1680783;82;25965;-78
2021/03/17 06:55:19;;;;;;;22.32;11.80;;;;;;;1.18;85.88;100699.42;1711609;82;25986;-78
2021/03/17 06:57:53;;;;;;;19.73;11.95;;;;;;;1.20;85.78;100701.45;1702363;82;27577;-78
2021/03/17 07:00:34;;;;;;;22.98;12.13;;;;;;;1.23;85.74;100698.58;1733738;82;25753;-80
2021/03/17 07:03:12;;;;;;;21.93;11.43;;;;;;;1.26;85.56;100702.27;1701390;82;32788;-76
2021/03/17 07:05:44;;;;;;;25.10;12.28;;;;;;;1.28;85.92;100699.02;1678710;82;25849;-77
2021/03/17 07:08:17;;;;;;;23.73;12.20;;;;;;;1.31;85.59;100699.25;1731237;82;25773;-77
2021/03/17 07:10:59;;;;;;;24.12;12.43;;;;;;;1.38;85.55;100703.08;1795879;79;25632;-77
2021/03/17 07:13:31;;;;;;;23.92;11.50;;;;;;;1.35;85.49;100709.44;1750151;80;25988;-80
2021/03/17 07:15:59;;;;;;;;;;;;;;;1.39;85.32;100703.45;1720660;81;28879;-80
2021/03/17 07:18:29;;;;;;;19.48;10.75;;;;;;;1.43;85.39;100710.15;1745198;80;26908;-77
2021/03/17 07:21:03;;;;;;;21.23;10.70;;;;;;;1.44;85.34;100710.48;1745111;80;25825;-77
2021/03/17 07:23:44;;;;;;;20.32;11.57;;;;;;;1.46;85.22;100718.64;1715409;81;26003;-76
2021/03/17 07:26:21;;;;;;;19.65;11.35;;;;;;;1.49;85.09;100724.16;1716076;81;26261;-77
2021/03/17 07:29:03;;;;;;;19.60;10.55;;;;;;;1.49;84.89;100722.36;1692756;83;27532;-78
2021/03/17 07:31:37;;;;;;;14.90;9.50;;;;;;;1.50;84.64;100719.22;1722708;81;25941;-77
2021/03/17 07:34:17;;;;;;;17.17;8.98;;;;;;;1.51;84.49;100736.74;1709344;81;25769;-78
2021/03/17 07:36:50;;;;;;;18.02;9.13;;;;;;;1.50;84.47;100725.81;1750179;80;26140;-77
2021/03/17 07:39:39;;;;;;;20.08;10.58;;;;;;;1.55;84.49;100723.64;1799431;77;25724;-79
2021/03/17 07:42:11;;;;;;;;;;;;;;;1.51;84.36;100724.87;1761677;79;26027;-78
2021/03/17 07:44:42;;;;;;;16.17;8.20;;;;;;;1.55;84.49;100723.64;1698733;80;27364;-77
2021/03/17 07:47:11;;;;;;;18.00;9.88;;;;;;;1.54;84.29;100724.13;1706623;82;25975;-76
2021/03/17 07:49:43;;;;;;;13.00;7.58;;;;;;;1.55;84.20;100728.92;1714283;82;25649;-77
2021/03/17 07:52:28;;;;;;;15.18;8.23;;;;;;;1.58;84.01;100727.84;1714775;80;25891;-78
2021/03/17 07:55:06;;;;;;;13.78;7.67;;;;;;;1.58;83.80;100734.44;1714404;80;26448;-76
2021/03/17 07:57:33;;;;;;;14.98;8.03;;;;;;;1.56;83.82;100733.25;1712840;82;27748;-76
2021/03/17 08:00:03;;;;;;;11.63;6.78;;;;;;;1.56;83.72;100730.11;1628081;82;26820;-77
2021/03/17 08:02:35;;;;;;;15.90;9.45;;;;;;;1.57;83.68;100729.64;1651568;82;25827;-76
2021/03/17 08:05:05;;;;;;;15.23;8.80;;;;;;;1.59;83.69;100726.39;1686115;83;25792;-76
2021/03/17 08:07:35;;;;;;;14.58;7.22;;;;;;;1.58;83.70;100724.22;1643647;85;26081;-76
2021/03/17 08:10:04;;;;;;;15.18;8.03;;;;;;;1.63;83.77;100724.31;1630219;83;28471;-77
2021/03/17 08:12:34;;;;;;;15.03;7.78;;;;;;;1.63;83.63;100723.84;1654358;85;26404;-77
2021/03/17 08:15:02;;;;;;;16.27;9.10;;;;;;;1.67;83.44;100729.73;1646870;85;25885;-77
2021/03/17 08:17:35;;;;;;;15.75;8.20;;;;;;;1.69;83.50;100732.57;1650516;83;26189;-77
2021/03/17 08:20:21;;;;;;;16.23;8.83;;;;;;;1.78;83.54;100730.97;1656505;83;25764;-76
2021/03/17 08:22:52;;;;;;;12.07;7.15;;;;;;;1.85;83.70;100729.03;1659494;85;27688;-76
2021/03/17 08:25:34;;;;;;;;;;;;;;;1.92;83.26;100730.67;1659764;83;25820;-77
2021/03/17 08:28:22;;;;;;;13.10;7.80;;;;;;;1.94;82.85;100725.63;1643436;83;25922;-77
2021/03/17 08:30:52;;;;;;;12.98;7.33;;;;;;;1.97;82.78;100725.35;1657260;83;26443;-77
2021/03/17 08:33:41;;;;;;;11.68;7.05;;;;;;;2.01;82.43;100725.44;1629696;84;25958;-77
2021/03/17 08:36:14;;;;;;;13.08;8.13;;;;;;;2.07;82.79;100728.91;1672295;85;27549;-77
2021/03/17 08:38:46;;;;;;;12.13;7.12;;;;;;;2.14;82.29;100731.37;1595447;86;26023;-77
2021/03/17 08:41:15;;;;;;;13.90;8.03;;;;;;;2.19;81.83;100736.27;1631860;84;25817;-77
2021/03/17 08:43:45;;;;;;;11.30;6.03;;;;;;;2.23;81.82;100728.43;1619519;84;25931;-77
2021/03/17 08:46:17;;;;;;;12.73;7.23;;;;;;;2.31;82.04;100726.81;1650371;84;26216;-77
2021/03/17 08:49:03;;;;;;;12.30;7.58;;;;;;;2.40;81.84;100720.38;1614545;84;28485;-77
2021/03/17 08:51:52;;;;;;;8.58;5.50;;;;;;;2.52;82.20;100726.80;1627827;86;26566;-78
2021/03/17 08:54:37;;;;;;;10.75;6.90;;;;;;;2.64;81.00;100726.20;1648816;84;25753;-77
2021/03/17 08:57:08;;;;;;;9.98;6.15;;;;;;;2.71;81.32;100726.88;1654469;85;25718;-77
2021/03/17 08:59:48;;;;;;;9.55;6.22;;;;;;;2.78;80.34;100721.89;1587518;86;26492;-77
2021/03/17 09:02:32;;;;;;;9.20;5.00;;;;;;;2.80;79.71;100721.27;1642376;85;28259;-77
2021/03/17 09:05:05;;;;;;;9.60;5.30;;;;;;;2.81;79.58;100726.89;1644897;85;26441;-77
2021/03/17 09:07:35;;;;;;;10.30;5.97;;;;;;;2.81;79.96;100727.73;1626584;86;25901;-77
2021/03/17 09:10:13;;;;;;;6.55;4.40;;;;;;;2.83;79.32;100728.44;1618045;85;25778;-77
2021/03/17 09:12:46;;;;;;;9.55;5.78;;;;;;;2.84;78.92;100730.61;1649330;85;26299;-77
2021/03/17 09:15:20;;;;;;;6.75;4.92;;;;;;;2.84;79.03;100727.48;1639074;86;27104;-77
2021/03/17 09:17:52;;;;;;;9.45;5.92;;;;;;;2.86;78.40;100733.47;1646307;85;26181;-76
2021/03/17 09:20:42;;;;;;;10.20;6.15;;;;;;;2.86;78.93;100728.66;1620139;85;25779;-76
2021/03/17 09:23:29;;;;;;;7.85;5.53;;;;;;;2.87;78.69;100731.16;1635166;85;26434;-77
2021/03/17 09:26:00;;;;;;;7.45;5.35;;;;;;;2.89;78.81;100733.66;1633375;85;25867;-76
2021/03/17 09:28:34;;;;;;;9.25;5.70;;;;;;;2.96;78.89;100734.81;1648308;85;26955;-76
2021/03/17 09:31:06;;;;;;;8.58;5.58;;;;;;;2.99;78.65;100729.27;1638982;85;25795;-76
2021/03/17 09:33:38;;;;;;;9.18;5.60;;;;;;;3.04;79.02;100733.16;1652652;85;25766;-76
2021/03/17 09:36:12;;;;;;;9.53;5.15;;;;;;;3.09;78.62;100738.90;1621586;86;25980;-75
2021/03/17 09:38:52;;;;;;;8.08;5.97;;;;;;;3.14;78.34;100739.82;1649724;85;25368;-76
2021/03/17 09:41:29;;;;;;;9.50;5.95;;;;;;;3.12;78.21;100735.16;1601256;85;27658;-76
2021/03/17 09:44:00;;;;;;;10.70;6.40;;;;;;;3.11;78.18;100738.27;1681882;83;26168;-76
2021/03/17 09:46:40;;;;;;;9.78;6.60;;;;;;;3.11;77.94;100738.27;1681404;83;25768;-76
2021/03/17 09:49:12;;;;;;;11.25;6.45;;;;;;;3.14;78.29;100734.02;1672346;84;26126;-76
2021/03/17 09:51:50;;;;;;;10.93;7.08;;;;;;;3.22;78.84;100733.83;1631341;84;25747;-76
2021/03/17 09:57:04;;;;;;;9.70;6.65;;;;;;;3.40;78.23;100740.14;1839998;77;25789;-77
2021/03/17 09:59:39;;;;;;;11.93;6.80;;;;;;;3.36;77.87;100742.21;1755179;79;25880;-77
2021/03/17 10:02:21;;;;;;;7.28;5.20;;;;;;;3.37;77.94;100747.02;1765215;79;26890;-77
2021/03/17 10:04:52;;;;;;;10.20;6.15;;;;;;;3.33;77.72;100745.15;1790735;77;25774;-77
2021/03/17 10:07:23;;;;;;;11.83;6.25;;;;;;;3.32;77.79;100743.46;1772408;79;25885;-76
2021/03/17 10:09:59;;;;;;;8.98;6.00;;;;;;;3.36;77.50;100748.83;1784780;79;25662;-76
2021/03/17 10:12:31;;;;;;;9.23;5.62;;;;;;;3.31;77.94;100752.39;1750006;80;26424;-75
2021/03/17 10:15:12;;;;;;;9.18;5.78;;;;;;;3.33;77.47;100746.95;1725885;80;28304;-77
2021/03/17 10:17:41;;;;;;;8.98;5.80;;;;;;;3.33;77.18;100747.80;1732289;81;33104;-77
2021/03/17 10:20:21;;;;;;;9.18;5.67;;;;;;;3.38;77.59;100750.03;1647948;83;25834;-76
2021/03/17 10:22:52;;;;;;;11.33;5.80;;;;;;;3.44;77.80;100749.00;1694668;83;25708;-76
2021/03/17 10:25:22;;;;;;;12.63;5.95;;;;;;;3.49;77.78;100761.33;1683518;83;25794;-76
2021/03/17 10:28:04;;;;;;;8.37;5.97;;;;;;;3.48;76.99;100747.75;1709316;83;27527;-77
2021/03/17 10:30:34;;;;;;;11.33;6.33;;;;;;;3.48;77.16;100746.91;1714858;81;26180;-77
2021/03/17 10:33:02;;;;;;;7.95;5.78;;;;;;;3.49;77.21;100754.70;1700459;82;26518;-77
2021/03/17 10:35:31;;;;;;;8.58;5.95;;;;;;;3.52;77.41;100755.77;1703472;83;25867;-77
2021/03/17 10:38:00;;;;;;;8.58;5.92;;;;;;;3.54;77.01;100747.19;1726954;81;26092;-77
2021/03/17 10:40:29;;;;;;;8.60;6.05;;;;;;;3.56;77.10;100748.38;1661802;83;27534;-77
2021/03/17 10:43:11;;;;;;;11.25;5.33;;;;;;;3.55;76.94;100744.88;1717111;82;25767;-76
2021/03/17 10:45:53;;;;;;;8.40;6.03;;;;;;;3.58;77.11;100745.94;1706480;82;25997;-77
2021/03/17 10:48:25;;;;;;;8.63;5.80;;;;;;;3.62;76.98;100748.66;1729481;82;25808;-76
2021/03/17 10:50:54;;;;;;;10.58;5.50;;;;;;;3.63;77.00;100746.85;1669491;83;25775;-77
2021/03/17 10:53:25;;;;;;;10.08;5.55;;;;;;;3.66;76.63;100750.05;1679353;83;27557;-77
2021/03/17 10:55:54;;;;;;;8.33;5.33;;;;;;;3.66;76.63;100751.38;1676388;83;25955;-77
2021/03/17 10:58:26;;;;;;;7.97;5.65;;;;;;;3.68;76.42;100751.22;1683340;83;25786;-79
2021/03/17 11:01:03;;;;;;;8.70;5.12;;;;;;;3.73;75.96;100749.00;1829126;77;26384;-78
2021/03/17 11:03:40;;;;;;;8.63;5.87;;;;;;;3.69;76.56;100749.78;1793389;78;26190;-78
2021/03/17 11:06:14;;;;;;;9.43;6.08;;;;;;;3.74;76.39;100744.07;1778597;78;28386;-78
2021/03/17 11:08:45;;;;;;;7.55;5.35;;;;;;;3.76;76.19;100744.77;1805957;78;26343;-80
2021/03/17 11:11:13;;;;;;;5.75;4.30;;;;;;;3.78;76.50;100748.95;1755120;78;25722;-78
2021/03/17 11:13:49;;;;;;;8.33;4.92;;;;;;;3.83;75.61;100755.13;1785817;78;26685;-79
2021/03/17 11:16:37;;;;;;;11.40;5.40;;;;;;;3.79;75.72;100743.98;1736729;81;25814;-78
2021/03/17 11:19:11;;;;;;;7.87;4.55;;;;;;;3.79;75.79;100743.14;1744032;81;27545;-78
2021/03/17 11:21:41;;;;;;;7.37;4.70;;;;;;;3.78;75.37;100749.44;1720240;81;26198;-78
2021/03/17 11:24:22;;;;;;;11.63;5.80;;;;;;;3.78;75.32;100744.98;1712559;81;25727;-78
2021/03/17 11:26:51;;;;;;;11.43;5.25;;;;;;;3.79;75.41;100742.66;1738095;80;25857;-78
2021/03/17 11:29:24;;;;;;;9.33;5.50;;;;;;;3.83;75.81;100740.56;1743594;81;25708;-77
2021/03/17 11:31:55;;;;;;;8.88;4.85;;;;;;;3.87;75.48;100741.98;1661476;81;29057;-77
2021/03/17 11:34:23;;;;;;;9.10;5.17;;;;;;;3.88;75.49;100735.69;1691340;82;25906;-78
2021/03/17 11:36:51;;;;;;;8.98;5.80;;;;;;;3.87;75.32;100741.47;1745272;81;25723;-77
2021/03/17 11:39:19;;;;;;;10.15;5.55;;;;;;;3.87;75.50;100744.11;1731691;82;26128;-78
2021/03/17 11:41:48;;;;;;;8.38;5.47;;;;;;;3.87;75.39;100736.68;1751156;80;26522;-77
2021/03/17 11:44:20;;;;;;;13.43;6.17;;;;;;;3.88;75.67;100739.66;1727794;80;27600;-77
2021/03/17 11:46:49;;;;;;;8.78;5.55;;;;;;;3.84;75.03;100735.63;1750043;80;25926;-78
2021/03/17 11:49:17;;;;;;;9.45;5.62;;;;;;;3.80;75.50;100736.88;1737283;80;26399;-78
2021/03/17 11:51:45;;;;;;;11.48;6.10;;;;;;;3.81;75.58;100737.21;1718416;80;25950;-77
2021/03/17 11:54:13;;;;;;;8.85;6.08;;;;;;;3.81;75.17;100734.08;1700647;80;25940;-78
2021/03/17 11:56:41;;;;;;;11.90;6.03;;;;;;;3.82;75.55;100736.25;1730591;80;27086;-78